Aviation Digital Data Service (ADDS)

Output produced by TAFs form (0023 UTC 13 February 2016)
found at http://aviationweather.gov/adds/tafs/
 
KTCS 122320Z 1300/1324 12005KT P6SM SKC 
     FM130300 32006KT P6SM FEW250 
     FM131200 VRB04KT P6SM FEW250 
     FM132000 16007KT P6SM FEW250